createdAt,value
2023-03-08T00:01:50.182Z,19.80
2023-03-08T00:03:53.404Z,19.80
2023-03-08T00:05:55.210Z,19.90
2023-03-08T00:07:56.946Z,19.80
2023-03-08T00:09:58.730Z,19.80
2023-03-08T00:12:00.500Z,19.90
2023-03-08T00:14:02.318Z,19.90
2023-03-08T00:16:05.152Z,19.90
2023-03-08T00:18:07.028Z,19.90
2023-03-08T00:20:09.546Z,19.90
2023-03-08T00:22:11.638Z,19.90
2023-03-08T00:24:13.388Z,19.90
2023-03-08T00:26:15.142Z,19.90
2023-03-08T00:28:17.018Z,19.90
2023-03-08T00:30:18.875Z,19.90
2023-03-08T00:32:20.696Z,19.90
2023-03-08T00:34:24.643Z,19.90
2023-03-08T00:36:26.383Z,19.90
2023-03-08T00:38:28.609Z,19.90
2023-03-08T00:40:30.392Z,19.90
2023-03-08T00:42:32.191Z,19.90
2023-03-08T00:44:33.993Z,19.90
2023-03-08T00:46:35.717Z,19.90
2023-03-08T00:48:37.631Z,19.90
2023-03-08T00:50:39.451Z,19.90
2023-03-08T00:52:41.238Z,19.90
2023-03-08T00:54:43.101Z,19.90
2023-03-08T00:56:44.937Z,19.90
2023-03-08T00:58:46.764Z,19.90
2023-03-08T01:00:49.207Z,19.90
2023-03-08T01:02:51.042Z,19.90
2023-03-08T01:04:52.852Z,19.90
2023-03-08T01:06:56.183Z,19.90
2023-03-08T01:08:58.015Z,19.90
2023-03-08T01:11:00.412Z,19.90
2023-03-08T01:13:02.507Z,19.90
2023-03-08T01:15:05.034Z,19.90
2023-03-08T01:17:08.372Z,19.90
2023-03-08T01:19:10.605Z,19.90
2023-03-08T01:21:12.388Z,19.90
2023-03-08T01:23:14.209Z,19.90
2023-03-08T01:25:15.983Z,19.90
2023-03-08T01:27:17.775Z,20.00
2023-03-08T01:29:19.594Z,19.90
2023-03-08T01:31:22.767Z,19.90
2023-03-08T01:33:26.302Z,19.90
2023-03-08T01:35:28.080Z,19.90
2023-03-08T01:37:33.004Z,19.90
2023-03-08T01:39:35.005Z,19.90
2023-03-08T01:41:36.754Z,19.90
2023-03-08T01:43:39.220Z,19.90
2023-03-08T01:46:01.168Z,20.00
2023-03-08T01:48:03.082Z,19.90
2023-03-08T01:50:24.972Z,19.90
2023-03-08T01:52:35.535Z,19.90
2023-03-08T01:54:37.448Z,19.90
2023-03-08T01:56:40.356Z,19.90
2023-03-08T01:58:43.579Z,19.90
2023-03-08T02:00:45.860Z,19.90
2023-03-08T02:03:07.880Z,19.90
2023-03-08T02:05:10.317Z,19.90
2023-03-08T02:07:13.622Z,19.90
2023-03-08T02:09:16.445Z,19.90
2023-03-08T02:11:20.715Z,19.90
2023-03-08T02:13:23.442Z,19.90
2023-03-08T02:15:25.344Z,19.90
2023-03-08T02:17:31.047Z,19.90
2023-03-08T02:19:55.700Z,19.90
2023-03-08T02:21:58.231Z,19.90
2023-03-08T02:24:05.834Z,19.90
2023-03-08T02:26:07.560Z,19.90
2023-03-08T02:28:11.041Z,19.90
2023-03-08T02:30:13.786Z,19.90
2023-03-08T02:32:15.884Z,19.90
2023-03-08T02:34:17.695Z,19.90
2023-03-08T02:36:19.405Z,19.90
2023-03-08T02:38:21.846Z,19.90
2023-03-08T02:40:23.624Z,19.90
2023-03-08T02:42:25.487Z,19.90
2023-03-08T02:44:27.249Z,19.90
2023-03-08T02:46:29.102Z,19.90
2023-03-08T02:48:33.048Z,19.90
2023-03-08T02:50:34.890Z,19.90
2023-03-08T02:52:36.719Z,19.90
2023-03-08T02:54:38.507Z,19.90
2023-03-08T02:56:40.342Z,19.90
2023-03-08T02:58:43.491Z,19.90
2023-03-08T03:00:45.267Z,19.90
2023-03-08T03:02:47.670Z,19.90
2023-03-08T03:04:49.420Z,19.90
2023-03-08T03:06:51.282Z,19.90
2023-03-08T03:08:53.313Z,19.90
2023-03-08T03:10:55.446Z,19.90
2023-03-08T03:12:57.236Z,19.90
2023-03-08T03:15:03.514Z,19.90
2023-03-08T03:17:05.351Z,19.90
2023-03-08T03:19:07.194Z,19.90
2023-03-08T03:21:10.208Z,19.90
2023-03-08T03:23:12.049Z,19.90
2023-03-08T03:25:20.197Z,19.90
2023-03-08T03:27:23.382Z,19.90
2023-03-08T03:29:25.393Z,19.90
2023-03-08T03:31:35.327Z,19.90
2023-03-08T03:33:37.542Z,19.90
2023-03-08T03:35:39.644Z,19.90
2023-03-08T03:37:43.060Z,19.90
2023-03-08T03:39:45.083Z,19.90
2023-03-08T03:41:49.822Z,19.90
2023-03-08T03:43:51.840Z,19.90
2023-03-08T03:46:00.879Z,19.90
2023-03-08T03:48:03.225Z,19.90
2023-03-08T03:50:05.724Z,19.90
2023-03-08T03:52:18.096Z,19.90
2023-03-08T03:54:27.573Z,19.90
2023-03-08T03:56:32.462Z,19.90
2023-03-08T03:58:35.582Z,19.90
2023-03-08T04:00:38.517Z,19.90
2023-03-08T04:02:52.232Z,19.90
2023-03-08T04:04:55.293Z,19.90
2023-03-08T04:07:01.076Z,19.90
2023-03-08T04:09:10.792Z,19.90
2023-03-08T04:11:15.643Z,19.90
2023-03-08T04:13:17.905Z,19.90
2023-03-08T04:15:20.209Z,19.90
2023-03-08T04:17:21.982Z,19.90
2023-03-08T04:19:27.546Z,19.90
2023-03-08T04:21:33.039Z,19.90
2023-03-08T04:23:35.860Z,19.90
2023-03-08T04:25:40.029Z,19.90
2023-03-08T04:27:44.613Z,19.90
2023-03-08T04:29:46.686Z,19.90
2023-03-08T04:31:48.926Z,19.90
2023-03-08T04:33:54.052Z,19.90
2023-03-08T04:35:56.354Z,19.90
2023-03-08T04:37:59.903Z,19.90
2023-03-08T04:40:03.264Z,19.90
2023-03-08T04:42:07.706Z,19.90
2023-03-08T04:44:10.592Z,19.90
2023-03-08T04:46:17.875Z,19.90
2023-03-08T04:48:20.152Z,19.90
2023-03-08T04:50:22.587Z,19.90
2023-03-08T04:52:25.319Z,19.90
2023-03-08T04:54:27.922Z,19.90
2023-03-08T04:56:37.707Z,19.90
2023-03-08T04:58:39.961Z,19.90
2023-03-08T05:00:41.965Z,19.90
2023-03-08T05:02:44.554Z,20.00
2023-03-08T05:04:51.113Z,19.90
2023-03-08T05:06:53.102Z,19.90
2023-03-08T05:08:59.259Z,19.90
2023-03-08T05:11:01.771Z,19.90
2023-03-08T05:13:07.442Z,20.00
2023-03-08T05:15:09.677Z,19.90
2023-03-08T05:17:11.490Z,19.90
2023-03-08T05:19:13.744Z,19.90
2023-03-08T05:21:22.907Z,19.90
2023-03-08T05:23:29.395Z,19.90
2023-03-08T05:25:32.220Z,19.90
2023-03-08T05:27:35.605Z,19.90
2023-03-08T05:29:38.580Z,19.90
2023-03-08T05:31:41.223Z,19.90
2023-03-08T05:33:45.881Z,19.90
2023-03-08T05:35:53.739Z,19.90
2023-03-08T05:37:56.418Z,19.90
2023-03-08T05:39:58.764Z,19.90
2023-03-08T05:42:00.650Z,19.90
2023-03-08T05:44:09.874Z,19.90
2023-03-08T05:46:19.355Z,19.90
2023-03-08T05:48:22.637Z,19.90
2023-03-08T05:50:24.471Z,20.00
2023-03-08T05:52:29.053Z,19.90
2023-03-08T05:54:33.542Z,19.90
2023-03-08T05:56:39.140Z,20.00
2023-03-08T05:58:48.341Z,20.00
2023-03-08T06:00:51.340Z,20.00
2023-03-08T06:02:53.297Z,19.90
2023-03-08T06:04:56.136Z,20.00
2023-03-08T06:07:00.674Z,19.90
2023-03-08T06:09:08.599Z,19.90
2023-03-08T06:11:15.096Z,19.90
2023-03-08T06:13:18.935Z,20.00
2023-03-08T06:15:20.786Z,19.90
2023-03-08T06:17:22.733Z,19.90
2023-03-08T06:19:26.038Z,19.90
2023-03-08T06:21:30.380Z,19.90
2023-03-08T06:23:37.934Z,19.90
2023-03-08T06:25:39.795Z,19.90
2023-03-08T06:27:42.082Z,19.90
2023-03-08T06:29:51.747Z,19.90
2023-03-08T06:31:54.634Z,19.90
2023-03-08T06:33:57.365Z,19.90
2023-03-08T06:36:11.969Z,19.90
2023-03-08T06:38:13.704Z,19.90
2023-03-08T06:40:15.642Z,19.90
2023-03-08T06:42:17.419Z,19.90
2023-03-08T06:44:19.170Z,20.00
2023-03-08T06:46:21.020Z,19.90
2023-03-08T06:48:23.301Z,19.90
2023-03-08T06:50:26.371Z,20.00
2023-03-08T06:52:28.417Z,19.90
2023-03-08T06:54:30.541Z,19.90
2023-03-08T06:56:32.472Z,19.90
2023-03-08T06:58:37.513Z,19.90
2023-03-08T07:00:39.278Z,19.90
2023-03-08T07:02:41.085Z,19.90
2023-03-08T07:04:42.905Z,19.90
2023-03-08T07:06:44.852Z,20.00
2023-03-08T07:08:46.618Z,19.90
2023-03-08T07:10:48.385Z,19.90
2023-03-08T07:12:50.591Z,19.90
2023-03-08T07:14:52.569Z,19.90
2023-03-08T07:16:54.388Z,19.90
2023-03-08T07:18:56.155Z,20.00
2023-03-08T07:20:58.360Z,19.90
2023-03-08T07:23:00.146Z,19.90
2023-03-08T07:25:01.920Z,19.90
2023-03-08T07:27:03.839Z,19.90
2023-03-08T07:29:05.742Z,19.90
2023-03-08T07:31:09.890Z,20.00
2023-03-08T07:33:11.955Z,19.90
2023-03-08T07:35:15.145Z,20.00
2023-03-08T07:37:16.950Z,20.00
2023-03-08T07:39:18.675Z,20.00
2023-03-08T07:41:20.504Z,20.00
2023-03-08T07:43:22.563Z,20.00
2023-03-08T07:45:32.752Z,20.00
2023-03-08T07:47:34.561Z,20.00
2023-03-08T07:49:36.323Z,19.90
2023-03-08T07:51:38.104Z,20.00
2023-03-08T07:53:39.904Z,20.00
2023-03-08T07:55:41.654Z,20.00
2023-03-08T07:57:43.444Z,19.90
2023-03-08T07:59:45.205Z,19.90
2023-03-08T08:01:47.089Z,19.90
2023-03-08T08:03:48.923Z,19.90
2023-03-08T08:05:50.933Z,19.90
2023-03-08T08:07:52.710Z,19.90
2023-03-08T08:09:54.522Z,19.90
2023-03-08T08:11:56.284Z,20.00
2023-03-08T08:13:58.417Z,19.90
2023-03-08T08:16:01.415Z,20.00
2023-03-08T08:18:28.100Z,20.00
2023-03-08T08:20:29.874Z,20.00
2023-03-08T08:22:31.624Z,20.00
2023-03-08T08:24:33.369Z,20.00
2023-03-08T08:26:35.122Z,20.10
2023-03-08T08:28:37.615Z,20.00
2023-03-08T08:30:39.361Z,20.00
2023-03-08T08:32:41.206Z,19.90
2023-03-08T08:34:43.018Z,19.80
2023-03-08T08:36:44.914Z,19.70
2023-03-08T08:38:47.536Z,19.90
2023-03-08T08:40:49.327Z,20.00
2023-03-08T08:42:51.064Z,20.10
2023-03-08T08:44:53.322Z,20.20
2023-03-08T08:46:55.071Z,20.20
2023-03-08T08:48:57.778Z,20.20
2023-03-08T08:51:00.004Z,20.20
2023-03-08T08:53:01.872Z,20.20
2023-03-08T08:55:03.900Z,20.30
2023-03-08T08:57:08.580Z,20.40
2023-03-08T08:59:11.809Z,20.40
2023-03-08T09:01:14.654Z,20.40
2023-03-08T09:03:16.426Z,20.40
2023-03-08T09:05:18.215Z,20.50
2023-03-08T09:07:19.983Z,20.50
2023-03-08T09:09:21.785Z,20.50
2023-03-08T09:11:24.600Z,20.50
2023-03-08T09:13:26.553Z,20.50
2023-03-08T09:15:28.290Z,20.60
2023-03-08T09:17:30.085Z,20.60
2023-03-08T09:19:31.936Z,20.60
2023-03-08T09:21:34.057Z,20.60
2023-03-08T09:23:35.907Z,20.60
2023-03-08T09:25:37.712Z,20.60
2023-03-08T09:27:40.268Z,20.60
2023-03-08T09:29:42.193Z,20.70
2023-03-08T09:31:43.917Z,20.70
2023-03-08T09:33:46.946Z,20.80
2023-03-08T09:35:58.346Z,20.80
2023-03-08T09:38:00.435Z,20.80
2023-03-08T09:40:02.272Z,20.80
2023-03-08T09:42:04.825Z,20.90
2023-03-08T09:44:09.410Z,20.90
2023-03-08T09:46:13.598Z,20.80
2023-03-08T09:48:22.660Z,20.80
2023-03-08T09:50:24.478Z,20.80
2023-03-08T09:52:32.817Z,20.70
2023-03-08T09:54:35.242Z,20.80
2023-03-08T09:56:43.872Z,20.70
2023-03-08T09:59:04.464Z,20.70
2023-03-08T10:01:29.407Z,20.70
2023-03-08T10:03:31.223Z,20.80
2023-03-08T10:05:32.949Z,20.80
2023-03-08T10:07:37.738Z,20.80
2023-03-08T10:09:42.644Z,20.70
2023-03-08T10:12:02.891Z,20.80
2023-03-08T10:14:16.123Z,20.70
2023-03-08T10:16:29.322Z,20.70
2023-03-08T10:18:43.078Z,20.70
2023-03-08T10:20:45.475Z,20.70
2023-03-08T10:22:51.290Z,20.70
2023-03-08T10:25:00.649Z,20.70
2023-03-08T10:27:25.187Z,20.80
2023-03-08T10:29:27.147Z,20.90
2023-03-08T10:31:30.809Z,20.80
2023-03-08T10:33:34.182Z,20.90
2023-03-08T10:35:37.665Z,20.80
2023-03-08T10:37:39.650Z,20.90
2023-03-08T10:39:51.955Z,20.90
2023-03-08T10:41:55.679Z,20.90
2023-03-08T10:43:57.439Z,21.00
2023-03-08T10:46:06.625Z,21.00
2023-03-08T10:48:17.482Z,21.10
2023-03-08T10:50:20.913Z,21.00
2023-03-08T10:52:26.537Z,21.00
2023-03-08T10:54:28.875Z,21.00
2023-03-08T10:56:38.358Z,21.00
2023-03-08T10:58:40.287Z,20.90
2023-03-08T11:00:43.290Z,20.80
2023-03-08T11:02:45.445Z,20.80
2023-03-08T11:04:51.290Z,20.90
2023-03-08T11:06:53.240Z,21.00
2023-03-08T11:08:59.635Z,20.90
2023-03-08T11:11:02.377Z,20.90
2023-03-08T11:13:39.715Z,21.00
2023-03-08T11:15:44.207Z,20.90
2023-03-08T11:17:48.805Z,21.00
2023-03-08T11:20:09.346Z,20.90
2023-03-08T11:22:18.646Z,20.90
2023-03-08T11:24:26.950Z,20.90
2023-03-08T11:26:41.785Z,20.90
2023-03-08T11:28:43.606Z,20.90
2023-03-08T11:30:48.160Z,21.00
2023-03-08T11:33:09.007Z,20.90
2023-03-08T11:35:19.766Z,20.90
2023-03-08T11:37:25.688Z,20.90
2023-03-08T11:39:37.703Z,20.90
2023-03-08T11:41:54.743Z,20.90
2023-03-08T11:43:56.487Z,20.90
2023-03-08T11:46:10.100Z,20.90
2023-03-08T11:48:25.528Z,20.90
2023-03-08T11:50:27.299Z,21.00
2023-03-08T11:52:41.153Z,21.00
2023-03-08T11:54:52.689Z,21.00
2023-03-08T11:56:55.074Z,21.10
2023-03-08T11:59:18.035Z,21.10
2023-03-08T12:01:22.460Z,21.00
2023-03-08T12:03:26.765Z,21.10
2023-03-08T12:05:29.850Z,21.10
2023-03-08T12:07:50.481Z,21.10
2023-03-08T12:10:04.605Z,21.20
2023-03-08T12:12:10.401Z,21.10
2023-03-08T12:14:18.567Z,21.10
2023-03-08T12:16:25.759Z,21.20
2023-03-08T12:18:36.793Z,21.10
2023-03-08T12:20:40.242Z,21.10
2023-03-08T12:22:46.843Z,21.00
2023-03-08T12:24:53.770Z,21.10
2023-03-08T12:26:59.828Z,21.10
2023-03-08T12:29:09.487Z,21.10
2023-03-08T12:31:26.854Z,21.00
2023-03-08T12:33:30.047Z,21.10
2023-03-08T12:35:33.555Z,21.00
2023-03-08T12:37:35.489Z,21.10
2023-03-08T12:39:37.505Z,21.10
2023-03-08T12:41:39.246Z,21.10
2023-03-08T12:43:41.063Z,21.10
2023-03-08T12:45:44.003Z,21.20
2023-03-08T12:48:04.302Z,21.10
2023-03-08T12:50:10.634Z,21.10
2023-03-08T12:52:18.594Z,21.10
2023-03-08T12:54:21.746Z,21.00
2023-03-08T12:56:29.997Z,21.00
2023-03-08T12:58:32.577Z,21.10
2023-03-08T13:00:36.616Z,21.10
2023-03-08T13:02:38.430Z,20.90
2023-03-08T13:04:42.188Z,20.90
2023-03-08T13:07:00.284Z,21.00
2023-03-08T13:09:15.696Z,21.00
2023-03-08T13:11:17.882Z,21.00
2023-03-08T13:13:38.704Z,21.00
2023-03-08T13:15:41.058Z,21.10
2023-03-08T13:17:48.805Z,21.10
2023-03-08T13:19:51.940Z,21.10
2023-03-08T13:21:53.731Z,21.10
2023-03-08T13:24:01.486Z,21.10
2023-03-08T13:26:09.473Z,21.20
2023-03-08T13:28:16.125Z,21.10
2023-03-08T13:30:50.226Z,21.20
2023-03-08T13:32:52.212Z,21.20
2023-03-08T13:35:04.754Z,21.20
2023-03-08T13:37:19.202Z,21.20
2023-03-08T13:39:22.441Z,21.20
2023-03-08T13:41:31.003Z,21.20
2023-03-08T13:43:33.985Z,21.20
2023-03-08T13:45:35.978Z,21.20
2023-03-08T13:47:38.707Z,21.30
2023-03-08T13:49:42.822Z,21.30
2023-03-08T13:51:46.292Z,21.30
2023-03-08T13:53:48.219Z,21.30
2023-03-08T13:55:52.147Z,21.30
2023-03-08T13:57:54.004Z,21.30
2023-03-08T13:59:57.428Z,21.30
2023-03-08T14:01:59.311Z,21.30
2023-03-08T14:04:10.260Z,21.30
2023-03-08T14:06:22.564Z,21.30
2023-03-08T14:08:25.529Z,21.40
2023-03-08T14:10:45.433Z,21.40
2023-03-08T14:12:47.264Z,21.40
2023-03-08T14:14:54.357Z,21.40
2023-03-08T14:16:56.499Z,21.30
2023-03-08T14:18:59.632Z,21.40
2023-03-08T14:21:01.569Z,21.50
2023-03-08T14:23:03.757Z,21.50
2023-03-08T14:25:05.781Z,21.40
2023-03-08T14:27:07.611Z,21.40
2023-03-08T14:29:12.118Z,21.30
2023-03-08T14:31:23.994Z,21.30
2023-03-08T14:33:40.286Z,21.20
2023-03-08T14:35:45.007Z,21.20
2023-03-08T14:37:46.906Z,21.20
2023-03-08T14:39:49.535Z,21.20
2023-03-08T14:41:51.410Z,21.30
2023-03-08T14:43:53.246Z,21.30
2023-03-08T14:45:56.447Z,21.30
2023-03-08T14:48:16.757Z,21.30
2023-03-08T14:50:23.167Z,21.30
2023-03-08T14:52:27.039Z,21.30
2023-03-08T14:54:28.759Z,21.40
2023-03-08T14:56:30.673Z,21.40
2023-03-08T14:58:33.580Z,21.40
2023-03-08T15:00:35.376Z,21.40
2023-03-08T15:02:37.286Z,21.50
2023-03-08T15:04:39.165Z,21.40
2023-03-08T15:06:41.118Z,21.40
2023-03-08T15:08:43.067Z,21.40
2023-03-08T15:10:45.171Z,21.40
2023-03-08T15:12:46.978Z,21.40
2023-03-08T15:14:48.772Z,21.50
2023-03-08T15:16:50.547Z,21.50
2023-03-08T15:18:52.314Z,21.50
2023-03-08T15:20:54.239Z,21.50
2023-03-08T15:22:59.088Z,21.50
2023-03-08T15:25:00.993Z,21.50
2023-03-08T15:27:03.243Z,21.50
2023-03-08T15:29:04.985Z,21.50
2023-03-08T15:31:06.826Z,21.50
2023-03-08T15:33:08.814Z,21.50
2023-03-08T15:35:10.899Z,21.50
2023-03-08T15:37:14.302Z,21.50
2023-03-08T15:39:16.215Z,21.50
2023-03-08T15:41:18.095Z,21.50
2023-03-08T15:43:19.849Z,21.50
2023-03-08T15:45:21.707Z,21.50
2023-03-08T15:47:23.536Z,21.50
2023-03-08T15:49:25.334Z,21.50
2023-03-08T15:51:31.376Z,21.60
2023-03-08T15:53:36.056Z,21.50
2023-03-08T15:55:38.653Z,21.50
2023-03-08T15:57:40.713Z,21.50
2023-03-08T15:59:42.656Z,21.50
2023-03-08T16:01:44.470Z,21.50
2023-03-08T16:03:46.260Z,21.50
2023-03-08T16:05:48.009Z,21.50
2023-03-08T16:07:56.651Z,21.50
2023-03-08T16:09:58.431Z,21.50
2023-03-08T16:12:00.193Z,21.50
2023-03-08T16:14:02.027Z,21.50
2023-03-08T16:16:04.516Z,21.50
2023-03-08T16:18:06.387Z,21.50
2023-03-08T16:20:08.525Z,21.50
2023-03-08T16:22:10.637Z,21.60
2023-03-08T16:24:12.359Z,21.50
2023-03-08T16:26:17.224Z,21.50
2023-03-08T16:28:19.437Z,21.50
2023-03-08T16:30:21.310Z,21.40
2023-03-08T16:32:23.202Z,21.40
2023-03-08T16:34:25.494Z,21.50
2023-03-08T16:36:27.250Z,21.50
2023-03-08T16:38:29.137Z,21.50
2023-03-08T16:40:30.908Z,21.50
2023-03-08T16:42:33.081Z,21.50
2023-03-08T16:44:34.882Z,21.50
2023-03-08T16:46:36.605Z,21.60
2023-03-08T16:48:38.366Z,21.60
2023-03-08T16:50:40.137Z,21.60
2023-03-08T16:52:41.876Z,21.60
2023-03-08T16:54:43.992Z,21.60
2023-03-08T16:56:45.732Z,21.70
2023-03-08T16:58:47.692Z,21.70
2023-03-08T17:00:49.493Z,21.60
2023-03-08T17:02:51.359Z,21.60
2023-03-08T17:04:53.262Z,21.50
2023-03-08T17:06:55.066Z,21.40
2023-03-08T17:08:57.870Z,21.30
2023-03-08T17:10:59.650Z,21.20
2023-03-08T17:13:01.421Z,21.20
2023-03-08T17:15:03.380Z,21.10
2023-03-08T17:17:05.185Z,21.10
2023-03-08T17:19:07.867Z,21.00
2023-03-08T17:21:09.722Z,21.00
2023-03-08T17:23:11.926Z,21.00
2023-03-08T17:25:13.779Z,20.90
2023-03-08T17:27:15.608Z,21.00
2023-03-08T17:29:17.438Z,21.00
2023-03-08T17:31:21.040Z,20.90
2023-03-08T17:33:23.096Z,20.90
2023-03-08T17:35:25.820Z,20.80
2023-03-08T17:37:27.655Z,20.80
2023-03-08T17:39:29.464Z,20.80
2023-03-08T17:41:31.360Z,20.70
2023-03-08T17:43:33.578Z,20.70
2023-03-08T17:45:35.360Z,20.70
2023-03-08T17:47:37.167Z,20.70
2023-03-08T17:49:39.932Z,20.70
2023-03-08T17:51:42.710Z,20.70
2023-03-08T17:53:44.943Z,20.80
2023-03-08T17:55:46.767Z,20.80
2023-03-08T17:57:48.531Z,20.80
2023-03-08T17:59:50.990Z,20.80
2023-03-08T18:01:52.775Z,20.70
2023-03-08T18:03:54.842Z,20.70
2023-03-08T18:05:56.595Z,20.60
2023-03-08T18:07:58.383Z,20.60
2023-03-08T18:10:00.293Z,20.60
2023-03-08T18:12:02.841Z,20.60
2023-03-08T18:14:08.451Z,20.60
2023-03-08T18:16:10.644Z,20.60
2023-03-08T18:18:12.605Z,20.60
2023-03-08T18:20:14.428Z,20.60
2023-03-08T18:22:17.319Z,20.60
2023-03-08T18:24:19.050Z,20.60
2023-03-08T18:26:20.842Z,20.60
2023-03-08T18:28:22.637Z,20.60
2023-03-08T18:30:24.406Z,20.60
2023-03-08T18:32:26.204Z,20.60
2023-03-08T18:34:28.262Z,20.60
2023-03-08T18:36:30.105Z,20.60
2023-03-08T18:38:32.098Z,20.60
2023-03-08T18:40:33.854Z,20.50
2023-03-08T18:42:35.676Z,20.50
2023-03-08T18:44:37.449Z,20.40
2023-03-08T18:46:39.569Z,20.40
2023-03-08T18:48:41.850Z,20.40
2023-03-08T18:50:43.616Z,20.40
2023-03-08T18:52:45.451Z,20.30
2023-03-08T18:54:47.361Z,20.30
2023-03-08T18:56:49.314Z,20.30
2023-03-08T18:58:51.492Z,20.30
2023-03-08T19:00:54.849Z,20.30
2023-03-08T19:02:56.969Z,20.30
2023-03-08T19:04:58.746Z,20.30
2023-03-08T19:07:00.462Z,20.30
2023-03-08T19:09:12.082Z,20.20
2023-03-08T19:11:15.127Z,20.20
2023-03-08T19:13:17.014Z,20.20
2023-03-08T19:15:18.703Z,20.20
2023-03-08T19:17:20.483Z,20.20
2023-03-08T19:19:22.205Z,20.20
2023-03-08T19:21:25.303Z,20.20
2023-03-08T19:23:27.099Z,20.20
2023-03-08T19:25:32.353Z,20.20
2023-03-08T19:27:34.515Z,20.20
2023-03-08T19:29:36.309Z,20.20
2023-03-08T19:31:40.094Z,20.20
2023-03-08T19:33:42.542Z,20.20
2023-03-08T19:35:44.287Z,20.20
2023-03-08T19:37:46.090Z,20.10
2023-03-08T19:39:47.870Z,20.10
2023-03-08T19:41:51.014Z,20.10
2023-03-08T19:43:53.143Z,20.10
2023-03-08T19:45:55.348Z,20.10
2023-03-08T19:47:57.148Z,20.10
2023-03-08T19:49:58.904Z,20.10
2023-03-08T19:52:02.332Z,20.10
2023-03-08T19:54:04.649Z,20.10
2023-03-08T19:56:06.551Z,20.10
2023-03-08T19:58:08.314Z,20.10
2023-03-08T20:00:10.528Z,20.10
2023-03-08T20:02:15.393Z,20.10
2023-03-08T20:04:18.856Z,20.10
2023-03-08T20:06:31.290Z,20.10
2023-03-08T20:08:33.084Z,20.10
2023-03-08T20:10:34.890Z,20.10
2023-03-08T20:12:36.654Z,20.10
2023-03-08T20:14:38.427Z,20.10
2023-03-08T20:16:40.195Z,20.10
2023-03-08T20:18:42.077Z,20.10
2023-03-08T20:20:43.837Z,20.10
2023-03-08T20:22:45.601Z,20.10
2023-03-08T20:24:47.391Z,20.10
2023-03-08T20:26:49.299Z,20.00
2023-03-08T20:28:51.350Z,20.10
2023-03-08T20:30:53.232Z,20.10
2023-03-08T20:32:55.174Z,20.00
2023-03-08T20:34:57.047Z,20.00
2023-03-08T20:36:58.806Z,20.00
2023-03-08T20:39:00.646Z,20.00
2023-03-08T20:41:04.559Z,20.00
2023-03-08T20:43:06.320Z,20.10
2023-03-08T20:45:08.403Z,20.10
2023-03-08T20:47:10.197Z,20.00
2023-03-08T20:49:11.973Z,20.10
2023-03-08T20:51:15.011Z,20.00
2023-03-08T20:53:16.770Z,20.00
2023-03-08T20:55:18.644Z,20.00
2023-03-08T20:57:20.448Z,20.10
2023-03-08T20:59:22.225Z,20.10
2023-03-08T21:01:25.956Z,20.00
2023-03-08T21:03:27.749Z,20.00
2023-03-08T21:05:31.999Z,20.00
2023-03-08T21:07:33.805Z,20.00
2023-03-08T21:09:35.614Z,20.00
2023-03-08T21:11:37.426Z,20.00
2023-03-08T21:13:39.176Z,20.00
2023-03-08T21:15:40.953Z,20.10
2023-03-08T21:17:42.772Z,20.00
2023-03-08T21:19:44.567Z,20.00
2023-03-08T21:21:46.318Z,20.00
2023-03-08T21:23:48.111Z,20.00
2023-03-08T21:25:50.431Z,20.00
2023-03-08T21:27:52.175Z,20.00
2023-03-08T21:29:56.832Z,20.00
2023-03-08T21:31:58.816Z,20.00
2023-03-08T21:34:06.865Z,20.00
2023-03-08T21:36:08.749Z,20.00
2023-03-08T21:38:10.558Z,20.00
2023-03-08T21:40:12.520Z,20.00
2023-03-08T21:42:14.274Z,20.00
2023-03-08T21:44:17.476Z,20.00
2023-03-08T21:46:19.793Z,20.00
2023-03-08T21:48:21.682Z,20.00
2023-03-08T21:50:23.991Z,20.00
2023-03-08T21:52:25.767Z,20.00
2023-03-08T21:54:28.536Z,20.00
2023-03-08T21:56:30.278Z,20.00
2023-03-08T21:58:32.081Z,20.00
2023-03-08T22:00:33.847Z,20.00
2023-03-08T22:02:35.611Z,20.00
2023-03-08T22:04:37.665Z,19.90
2023-03-08T22:06:39.411Z,20.00
2023-03-08T22:08:41.265Z,19.90
2023-03-08T22:10:42.998Z,20.00
2023-03-08T22:12:44.745Z,20.00
2023-03-08T22:14:46.734Z,19.90
2023-03-08T22:16:48.560Z,19.90
2023-03-08T22:18:53.676Z,20.00
2023-03-08T22:20:55.438Z,20.00
2023-03-08T22:22:57.208Z,20.00
2023-03-08T22:24:59.031Z,19.90
2023-03-08T22:27:00.808Z,19.90
2023-03-08T22:29:02.592Z,19.90
2023-03-08T22:31:09.315Z,19.90
2023-03-08T22:33:11.225Z,19.90
2023-03-08T22:35:13.016Z,19.90
2023-03-08T22:37:15.211Z,19.90
2023-03-08T22:39:17.009Z,19.90
2023-03-08T22:41:20.343Z,19.90
2023-03-08T22:43:22.163Z,19.90
2023-03-08T22:45:23.916Z,19.90
2023-03-08T22:47:25.828Z,19.90
2023-03-08T22:49:27.568Z,19.90
2023-03-08T22:51:29.323Z,19.90
2023-03-08T22:53:31.123Z,19.90
2023-03-08T22:55:33.137Z,19.90
2023-03-08T22:57:38.015Z,19.90
2023-03-08T22:59:39.949Z,19.90
2023-03-08T23:01:41.771Z,19.90
2023-03-08T23:03:43.731Z,19.90
2023-03-08T23:05:45.508Z,19.90
2023-03-08T23:07:47.304Z,19.90
2023-03-08T23:09:49.056Z,19.90
2023-03-08T23:11:50.860Z,19.80
2023-03-08T23:13:52.741Z,19.90
2023-03-08T23:15:54.535Z,19.90
2023-03-08T23:17:56.356Z,19.90
2023-03-08T23:19:58.119Z,19.90
2023-03-08T23:21:59.895Z,19.90
2023-03-08T23:24:01.657Z,19.90
2023-03-08T23:26:04.180Z,19.90
2023-03-08T23:28:06.656Z,19.90
2023-03-08T23:30:09.623Z,19.90
2023-03-08T23:32:11.487Z,19.80
2023-03-08T23:34:13.360Z,19.80
2023-03-08T23:36:16.250Z,19.80
2023-03-08T23:38:18.071Z,19.90
2023-03-08T23:40:19.900Z,19.80
2023-03-08T23:42:21.669Z,19.90
2023-03-08T23:44:23.447Z,19.80
2023-03-08T23:46:25.858Z,19.90
2023-03-08T23:48:27.661Z,19.80
2023-03-08T23:50:29.430Z,19.90
2023-03-08T23:52:31.188Z,19.80
2023-03-08T23:54:32.953Z,19.80
2023-03-08T23:56:35.921Z,19.90
2023-03-08T23:58:37.711Z,19.90
